Date,TemperatureHighF,TemperatureAvgF,TemperatureLowF,DewpointHighF,DewpointAvgF,DewpointLowF,HumidityHigh,HumidityAvg,HumidityLow,PressureMaxIn,PressureMinIn,WindSpeedMaxMPH,WindSpeedAvgMPH,GustSpeedMaxMPH,PrecipitationSumIn
2013-8-1,84,74,67,69,66,61,97,80,48,30.00,29.92,7,2,14,0.01
2013-8-2,85,73,62,69,64,60,95,74,51,30.02,29.95,5,1,12,0.00
2013-8-3,87,77,68,74,69,65,92,77,63,30.03,29.93,7,2,12,0.00
2013-8-4,80,72,62,68,59,55,95,65,44,30.12,30.02,6,2,11,0.00
2013-8-5,83,69,57,65,58,55,95,72,42,30.10,29.92,3,1,9,0.00
2013-8-6,84,75,68,75,69,62,95,80,68,29.94,29.88,3,0,9,0.01
2013-8-7,83,77,71,76,73,70,97,89,74,29.94,29.85,3,1,9,0.01
2013-8-8,88,79,72,76,74,71,98,85,64,29.94,29.85,4,1,10,0.00
2013-8-9,85,77,73,76,74,72,97,89,69,30.01,29.90,5,1,11,0.12
2013-8-10,84,77,72,75,73,71,97,86,70,30.09,30.00,2,0,7,0.04
2013-8-11,88,79,71,73,70,68,96,77,54,30.08,30.01,8,2,13,0.03
2013-8-12,82,70,64,74,67,63,97,92,76,30.07,29.88,3,0,6,1.22
2013-8-13,81,72,65,72,65,-100,98,81,60,30.04,29.86,9,2,15,0.29
2013-8-14,75,63,56,56,49,-100,85,66,44,30.14,30.04,5,2,11,0.01
2013-8-15,77,59,52,58,42,-100,94,70,47,30.14,30.03,5,1,10,0.00
2013-8-16,81,67,56,61,54,-100,95,70,47,30.11,30.05,4,1,9,0.00
2013-8-17,84,73,65,66,62,58,81,69,51,30.14,30.06,3,1,8,0.00
2013-8-18,85,72,61,66,61,-100,96,73,47,30.15,30.06,4,0,10,0.00
2013-8-19,87,70,64,71,54,-100,97,76,47,30.11,30.02,4,0,7,0.00
2013-8-20,88,73,64,73,66,-100,95,81,56,30.13,30.04,6,0,12,0.00
2013-8-21,81,71,67,73,69,66,98,94,78,30.15,30.08,3,0,9,0.01